Terminal Aerodrome Forecast
Issued by NWS

Home | Current Version | Previous Version | Graphics & Text | Print | Product List | Glossary On
Versions: 1 2 3 4 5 6 7 8 9 10 11 12 13 14 15 16
000
FTUS43 KMPX 200300 AAA
TAFRNH
TAF AMD
KRNH 200350Z 2004/2024 VRB02KT 5SM BR VCSH BKN060 OVC080
     FM200700 00000KT 5SM BR BKN060
      TEMPO 2009/2013 1SM BR SCT060
     FM201300 VRB02KT P6SM FEW250
     FM202200 07004KT P6SM SCT060=

USA.gov is the U.S. government's official web portal to all federal, state and local government web resources and services.